Аэропорт
Челябинск (USCC)

 USCC / CEK
ЗЦ Екатеринбург
Екатеринбург (USSS)
Челябинск (USCC)
 55.30580, 61.50330  / 769 ft

 USCC 161630Z 22004MPS 4600 -SN BR BKN020 M06/M09 Q0999 R09/490545 TEMPO 1100 SN VV005 RMK QFE729
 USCC 160800Z 1609/1709 21003G08MPS 6000 BKN020 TEMPO 1609/1709 24005G10MPS 3100 -SN BR BKN011
АИП 1605, АИП Таблицы, Данные
показать схемы

2019 © VATRUS division (Privacy Policy)